CheckWX is a tool to help pilots better visualize weather data.  It is not intended as a substitute for an official pre-flight weather briefing.

10:06:01 UTC

EDDN TAF
Nuremberg Airport
Nuremberg, Germany
TAF EDDN 260500Z 2606/2706 VRB03KT CAVOK TEMPO 2612/2618 29005KT BECMG 2704/2706 02005KT

Jun-26@
06:00 UTC

Jun-26 @ 06:00 UTC

Jun-27@
04:00 UTC

Jun-27 @ 04:00 UTC

TAF EDDN 260500Z 2606/2706 VRB03KT CAVOK
Wind
  • Variable at 3 KTS
Conditions
No significant weather
Cloud Levels
  • No significant clouds

Jun-26@
12:00 UTC

Jun-26 @ 12:00 UTC

Jun-26@
18:00 UTC

Jun-26 @ 18:00 UTC

TEMPO 2612/2618 29005KT

Temporary

Temporary Changes expected for less than half the time period

Wind
  • 290° at 5 KTS

Jun-27@
04:00 UTC

Jun-27 @ 04:00 UTC

Jun-27@
06:00 UTC

Jun-27 @ 06:00 UTC

BECMG 2704/2706 02005KT

Becoming

Becoming Conditions expected by Thu, Jun 27, 2019 @ 06:00 UTC

Wind
  • 020° at 5 KTS
Conditions
No significant weather
Cloud Levels
  • No significant clouds